BAW232 EDDN-LSZH
Flight info
| Callsign | BAW232 |
|---|---|
| Flight time | 0h 34m |
| Altitude | 24000 |
| Route | BOLSI1G BOLSI Y166 DKB N869 GUPIN/N0428F220 L173 LBU DCT SOLGO/N0434F230 T724 RILAX |
| Aircraft | B77L/H-SDE1E2E3FGHIJ2J3J4J5M1RWXY/LB1D1 |
Departure
| Time | 2026-04-26 15:13 |
|---|---|
| Airport | Nuremberg Airport (EDDN) |
Arrival
| Time | 2026-04-26 15:47 |
|---|---|
| Airport | Zürich Airport (LSZH) |
| Time | Latitude | Longitude | Altitude | Speed | Heading |
|---|---|---|---|---|---|
| 2026-04-26 14:46 | 49.49562 | 11.08507 | 1037 ft | 0 kts | 188° |
| 2026-04-26 15:07 | 49.49558 | 11.08506 | 1038 ft | 4 kts | 188° |
| 2026-04-26 15:07 | 49.49517 | 11.08470 | 1039 ft | 5 kts | 244° |
| 2026-04-26 15:07 | 49.49513 | 11.08400 | 1038 ft | 8 kts | 284° |
| 2026-04-26 15:08 | 49.49566 | 11.08364 | 1037 ft | 10 kts | 360° |
| 2026-04-26 15:08 | 49.49613 | 11.08444 | 1034 ft | 12 kts | 92° |
| 2026-04-26 15:08 | 49.49601 | 11.08580 | 1038 ft | 13 kts | 98° |
| 2026-04-26 15:08 | 49.49588 | 11.08730 | 1039 ft | 15 kts | 98° |
| 2026-04-26 15:09 | 49.49571 | 11.08891 | 1041 ft | 15 kts | 98° |
| 2026-04-26 15:09 | 49.49554 | 11.09065 | 1042 ft | 18 kts | 98° |
| 2026-04-26 15:09 | 49.49538 | 11.09232 | 1044 ft | 9 kts | 96° |
| 2026-04-26 15:09 | 49.49532 | 11.09326 | 1046 ft | 9 kts | 86° |
| 2026-04-26 15:10 | 49.49561 | 11.09418 | 1046 ft | 11 kts | 54° |
| 2026-04-26 15:10 | 49.49592 | 11.09484 | 1047 ft | 8 kts | 54° |
| 2026-04-26 15:10 | 49.49593 | 11.09486 | 1047 ft | 0 kts | 54° |
| 2026-04-26 15:11 | 49.49601 | 11.09503 | 1047 ft | 5 kts | 53° |
| 2026-04-26 15:12 | 49.49663 | 11.09561 | 1049 ft | 11 kts | 352° |
| 2026-04-26 15:12 | 49.49706 | 11.09468 | 1048 ft | 0 kts | 279° |
| 2026-04-26 15:12 | 49.49706 | 11.09463 | 1047 ft | 0 kts | 279° |
| 2026-04-26 15:12 | 49.49718 | 11.09339 | 1047 ft | 30 kts | 279° |
| 2026-04-26 15:13 | 49.49795 | 11.08566 | 1032 ft | 122 kts | 278° |
| 2026-04-26 15:13 | 49.49973 | 11.06864 | 1171 ft | 190 kts | 282° |
| 2026-04-26 15:13 | 49.50217 | 11.04735 | 1815 ft | 213 kts | 283° |
| 2026-04-26 15:13 | 49.50508 | 11.02367 | 2565 ft | 238 kts | 283° |
| 2026-04-26 15:14 | 49.50817 | 10.99824 | 3519 ft | 245 kts | 279° |
| 2026-04-26 15:14 | 49.51024 | 10.97141 | 4333 ft | 258 kts | 278° |
| 2026-04-26 15:14 | 49.51229 | 10.94371 | 5314 ft | 261 kts | 274° |
| 2026-04-26 15:14 | 49.50968 | 10.91608 | 6191 ft | 264 kts | 248° |
| 2026-04-26 15:15 | 49.50176 | 10.89091 | 6978 ft | 267 kts | 246° |
| 2026-04-26 15:15 | 49.49364 | 10.86448 | 7746 ft | 272 kts | 246° |
| 2026-04-26 15:15 | 49.48556 | 10.83792 | 8691 ft | 276 kts | 246° |
| 2026-04-26 15:15 | 49.47730 | 10.81111 | 9706 ft | 279 kts | 247° |
| 2026-04-26 15:16 | 49.46792 | 10.78496 | 10526 ft | 285 kts | 232° |
| 2026-04-26 15:16 | 49.45166 | 10.76588 | 10940 ft | 312 kts | 204° |
| 2026-04-26 15:16 | 49.42966 | 10.75999 | 11141 ft | 340 kts | 182° |
| 2026-04-26 15:16 | 49.40503 | 10.76030 | 11345 ft | 369 kts | 181° |
| 2026-04-26 15:17 | 49.37879 | 10.76063 | 12022 ft | 382 kts | 181° |
| 2026-04-26 15:17 | 49.36070 | 10.76071 | 12637 ft | 387 kts | 181° |
| 2026-04-26 15:17 | 49.32467 | 10.76044 | 14029 ft | 393 kts | 182° |
| 2026-04-26 15:17 | 49.29724 | 10.76004 | 14958 ft | 397 kts | 182° |
| 2026-04-26 15:18 | 49.27004 | 10.75515 | 15666 ft | 396 kts | 199° |
| 2026-04-26 15:18 | 49.24583 | 10.73528 | 16506 ft | 398 kts | 220° |
| 2026-04-26 15:18 | 49.22725 | 10.70408 | 17440 ft | 399 kts | 237° |
| 2026-04-26 15:18 | 49.21498 | 10.66598 | 18369 ft | 400 kts | 253° |
| 2026-04-26 15:19 | 49.20795 | 10.62476 | 19009 ft | 405 kts | 256° |
| 2026-04-26 15:19 | 49.20124 | 10.58250 | 19736 ft | 410 kts | 257° |
| 2026-04-26 15:19 | 49.19447 | 10.54021 | 20556 ft | 412 kts | 256° |
| 2026-04-26 15:19 | 49.18747 | 10.49749 | 21395 ft | 414 kts | 256° |
| 2026-04-26 15:20 | 49.18040 | 10.45535 | 22158 ft | 418 kts | 256° |
| 2026-04-26 15:20 | 49.17300 | 10.41187 | 22898 ft | 422 kts | 256° |
| 2026-04-26 15:20 | 49.16553 | 10.36836 | 23633 ft | 426 kts | 256° |
| 2026-04-26 15:20 | 49.15795 | 10.32443 | 24203 ft | 431 kts | 256° |
| 2026-04-26 15:21 | 49.14933 | 10.27971 | 24253 ft | 449 kts | 250° |
| 2026-04-26 15:21 | 49.13648 | 10.23578 | 24256 ft | 457 kts | 243° |
| 2026-04-26 15:21 | 49.12011 | 10.19379 | 24252 ft | 460 kts | 237° |
| 2026-04-26 15:21 | 49.10052 | 10.15505 | 24255 ft | 462 kts | 232° |
| 2026-04-26 15:22 | 49.07999 | 10.11711 | 24239 ft | 463 kts | 232° |
| 2026-04-26 15:22 | 49.05954 | 10.07927 | 24232 ft | 463 kts | 232° |
| 2026-04-26 15:22 | 49.03908 | 10.04112 | 24231 ft | 462 kts | 232° |
| 2026-04-26 15:22 | 49.01887 | 10.00320 | 24237 ft | 461 kts | 232° |
| 2026-04-26 15:23 | 48.99866 | 9.96514 | 24236 ft | 461 kts | 232° |
| 2026-04-26 15:23 | 48.97853 | 9.92721 | 24238 ft | 460 kts | 232° |
| 2026-04-26 15:23 | 48.95860 | 9.88967 | 24234 ft | 460 kts | 232° |
| 2026-04-26 15:23 | 48.93845 | 9.85179 | 24233 ft | 460 kts | 232° |
| 2026-04-26 15:24 | 48.91832 | 9.81404 | 24225 ft | 459 kts | 232° |
| 2026-04-26 15:24 | 48.90068 | 9.77416 | 24220 ft | 454 kts | 245° |
| 2026-04-26 15:24 | 48.89057 | 9.72874 | 24227 ft | 454 kts | 258° |
| 2026-04-26 15:24 | 48.88714 | 9.68103 | 24228 ft | 455 kts | 270° |
| 2026-04-26 15:25 | 48.89007 | 9.63313 | 24233 ft | 456 kts | 278° |
| 2026-04-26 15:25 | 48.89310 | 9.60142 | 24232 ft | 457 kts | 278° |
| 2026-04-26 15:25 | 48.89869 | 9.53713 | 24222 ft | 459 kts | 277° |
| 2026-04-26 15:25 | 48.90233 | 9.48907 | 24215 ft | 459 kts | 276° |
| 2026-04-26 15:26 | 48.90479 | 9.44104 | 24200 ft | 453 kts | 269° |
| 2026-04-26 15:26 | 48.89939 | 9.39454 | 24198 ft | 456 kts | 251° |
| 2026-04-26 15:26 | 48.88479 | 9.35178 | 24215 ft | 460 kts | 236° |
| 2026-04-26 15:26 | 48.86380 | 9.31429 | 24221 ft | 462 kts | 226° |
| 2026-04-26 15:27 | 48.83910 | 9.28492 | 24201 ft | 453 kts | 212° |
| 2026-04-26 15:27 | 48.81109 | 9.26443 | 24212 ft | 445 kts | 206° |
| 2026-04-26 15:27 | 48.78249 | 9.24528 | 24206 ft | 442 kts | 206° |
| 2026-04-26 15:27 | 48.75467 | 9.22668 | 24208 ft | 442 kts | 206° |
| 2026-04-26 15:28 | 48.72657 | 9.20760 | 24217 ft | 442 kts | 207° |
| 2026-04-26 15:28 | 48.69864 | 9.18834 | 24204 ft | 442 kts | 207° |
| 2026-04-26 15:28 | 48.67065 | 9.16881 | 24211 ft | 442 kts | 207° |
| 2026-04-26 15:28 | 48.64267 | 9.14916 | 24213 ft | 443 kts | 207° |
| 2026-04-26 15:29 | 48.61468 | 9.12947 | 24214 ft | 444 kts | 207° |
| 2026-04-26 15:29 | 48.58667 | 9.10976 | 24204 ft | 445 kts | 207° |
| 2026-04-26 15:29 | 48.53044 | 9.07027 | 24213 ft | 447 kts | 207° |
| 2026-04-26 15:30 | 48.47301 | 9.03008 | 24195 ft | 447 kts | 207° |
| 2026-04-26 15:30 | 48.44522 | 9.01074 | 24175 ft | 432 kts | 207° |
| 2026-04-26 15:30 | 48.41812 | 8.99186 | 24173 ft | 430 kts | 208° |
| 2026-04-26 15:31 | 48.39113 | 8.97301 | 24190 ft | 435 kts | 208° |
| 2026-04-26 15:31 | 48.33581 | 8.93449 | 24195 ft | 438 kts | 208° |
| 2026-04-26 15:31 | 48.30893 | 8.91343 | 24199 ft | 435 kts | 213° |
| 2026-04-26 15:32 | 48.27572 | 8.87890 | 24182 ft | 432 kts | 220° |
| 2026-04-26 15:32 | 48.23594 | 8.83370 | 24182 ft | 432 kts | 219° |
| 2026-04-26 15:32 | 48.21180 | 8.80678 | 24177 ft | 432 kts | 219° |
| 2026-04-26 15:33 | 48.18747 | 8.77984 | 23532 ft | 437 kts | 219° |
| 2026-04-26 15:33 | 48.16307 | 8.75296 | 22867 ft | 434 kts | 219° |
| 2026-04-26 15:33 | 48.13880 | 8.72648 | 22243 ft | 430 kts | 219° |
| 2026-04-26 15:33 | 48.11464 | 8.70024 | 21602 ft | 426 kts | 218° |
| 2026-04-26 15:34 | 48.09077 | 8.67430 | 20996 ft | 422 kts | 219° |
| 2026-04-26 15:34 | 48.06716 | 8.64863 | 20403 ft | 418 kts | 219° |
| 2026-04-26 15:34 | 48.04410 | 8.62356 | 19866 ft | 414 kts | 219° |
| 2026-04-26 15:34 | 48.02088 | 8.59836 | 19315 ft | 410 kts | 219° |
| 2026-04-26 15:35 | 47.99790 | 8.57354 | 18745 ft | 404 kts | 217° |
| 2026-04-26 15:35 | 47.97304 | 8.55481 | 18134 ft | 404 kts | 199° |
| 2026-04-26 15:35 | 47.94528 | 8.55007 | 17676 ft | 404 kts | 180° |
| 2026-04-26 15:35 | 47.91746 | 8.55739 | 16997 ft | 407 kts | 165° |
| 2026-04-26 15:36 | 47.89176 | 8.57463 | 16409 ft | 409 kts | 148° |
| 2026-04-26 15:36 | 47.86947 | 8.60055 | 15828 ft | 402 kts | 141° |
| 2026-04-26 15:36 | 47.84818 | 8.62723 | 15271 ft | 399 kts | 141° |
| 2026-04-26 15:36 | 47.82697 | 8.65382 | 14711 ft | 397 kts | 141° |
| 2026-04-26 15:37 | 47.80586 | 8.68002 | 14148 ft | 394 kts | 141° |
| 2026-04-26 15:37 | 47.78475 | 8.70591 | 13566 ft | 391 kts | 141° |
| 2026-04-26 15:37 | 47.76371 | 8.73152 | 12963 ft | 389 kts | 142° |
| 2026-04-26 15:37 | 47.74314 | 8.75642 | 12472 ft | 384 kts | 142° |
| 2026-04-26 15:38 | 47.72248 | 8.78134 | 11949 ft | 380 kts | 142° |
| 2026-04-26 15:38 | 47.70202 | 8.80599 | 11413 ft | 377 kts | 142° |
| 2026-04-26 15:38 | 47.68180 | 8.83030 | 11089 ft | 368 kts | 142° |
| 2026-04-26 15:38 | 47.66117 | 8.84947 | 10879 ft | 331 kts | 163° |
| 2026-04-26 15:39 | 47.63981 | 8.85283 | 10575 ft | 295 kts | 193° |
| 2026-04-26 15:39 | 47.62205 | 8.84083 | 10110 ft | 273 kts | 224° |
| 2026-04-26 15:39 | 47.61216 | 8.81807 | 9350 ft | 264 kts | 256° |
| 2026-04-26 15:39 | 47.61105 | 8.80902 | 9012 ft | 264 kts | 268° |
| 2026-04-26 15:40 | 47.61938 | 8.76584 | 7837 ft | 260 kts | 283° |
| 2026-04-26 15:40 | 47.62005 | 8.74822 | 7685 ft | 259 kts | 266° |
| 2026-04-26 15:40 | 47.61691 | 8.71213 | 7159 ft | 265 kts | 264° |
| 2026-04-26 15:40 | 47.61528 | 8.68560 | 6824 ft | 254 kts | 267° |
| 2026-04-26 15:41 | 47.61443 | 8.66831 | 6654 ft | 251 kts | 268° |
| 2026-04-26 15:41 | 47.61335 | 8.64266 | 6396 ft | 249 kts | 268° |
| 2026-04-26 15:41 | 47.61239 | 8.61705 | 6106 ft | 249 kts | 268° |
| 2026-04-26 15:41 | 47.61151 | 8.59149 | 5812 ft | 248 kts | 269° |
| 2026-04-26 15:42 | 47.61066 | 8.56600 | 5544 ft | 247 kts | 268° |
| 2026-04-26 15:42 | 47.60985 | 8.54070 | 5353 ft | 244 kts | 269° |
| 2026-04-26 15:42 | 47.60908 | 8.51581 | 5237 ft | 241 kts | 268° |
| 2026-04-26 15:42 | 47.60826 | 8.49084 | 5133 ft | 245 kts | 269° |
| 2026-04-26 15:43 | 47.60746 | 8.46580 | 5015 ft | 240 kts | 268° |
| 2026-04-26 15:43 | 47.60671 | 8.44156 | 4855 ft | 232 kts | 269° |
| 2026-04-26 15:43 | 47.59146 | 8.40415 | 4371 ft | 223 kts | 195° |
| 2026-04-26 15:44 | 47.57649 | 8.40460 | 4320 ft | 217 kts | 160° |
| 2026-04-26 15:44 | 47.55489 | 8.43323 | 3478 ft | 204 kts | 128° |
| 2026-04-26 15:44 | 47.54574 | 8.44824 | 3186 ft | 185 kts | 130° |
| 2026-04-26 15:45 | 47.52908 | 8.47162 | 2769 ft | 144 kts | 133° |
| 2026-04-26 15:45 | 47.52189 | 8.48146 | 2555 ft | 141 kts | 134° |
| 2026-04-26 15:46 | 47.50739 | 8.50146 | 2214 ft | 142 kts | 135° |
| 2026-04-26 15:46 | 47.50014 | 8.51117 | 1992 ft | 136 kts | 136° |
| 2026-04-26 15:46 | 47.49340 | 8.52055 | 1766 ft | 130 kts | 136° |
| 2026-04-26 15:46 | 47.48900 | 8.52668 | 1618 ft | 131 kts | 137° |
| 2026-04-26 15:47 | 47.47979 | 8.53915 | 1418 ft | 135 kts | 136° |
| 2026-04-26 15:47 | 47.46964 | 8.55309 | 1407 ft | 67 kts | 137° |
| 2026-04-26 15:47 | 47.46664 | 8.55716 | 1410 ft | 40 kts | 137° |
| 2026-04-26 15:48 | 47.46482 | 8.55908 | 1406 ft | 22 kts | 155° |
| 2026-04-26 15:48 | 47.46379 | 8.55955 | 1405 ft | 6 kts | 167° |
| 2026-04-26 15:48 | 47.46376 | 8.55956 | 1406 ft | 0 kts | 167° |
| 2026-04-26 15:48 | 47.46349 | 8.55965 | 1410 ft | 14 kts | 168° |
| 2026-04-26 15:49 | 47.46279 | 8.55981 | 1407 ft | 11 kts | 182° |
| 2026-04-26 15:49 | 47.46234 | 8.55907 | 1406 ft | 16 kts | 263° |
| 2026-04-26 15:49 | 47.46238 | 8.55728 | 1409 ft | 20 kts | 275° |
| 2026-04-26 15:49 | 47.46248 | 8.55604 | 1406 ft | 12 kts | 276° |
| 2026-04-26 15:50 | 47.46252 | 8.55545 | 1409 ft | 1 kts | 277° |
| 2026-04-26 15:50 | 47.46253 | 8.55540 | 1410 ft | 0 kts | 277° |
| 2026-04-26 15:50 | 47.46249 | 8.55526 | 1407 ft | 4 kts | 241° |
| 2026-04-26 15:51 | 47.46207 | 8.55499 | 1407 ft | 3 kts | 191° |
| 2026-04-26 15:51 | 47.46179 | 8.55493 | 1407 ft | 2 kts | 187° |
| 2026-04-26 15:51 | 47.46174 | 8.55492 | 1407 ft | 0 kts | 187° |